Time;durP1;ratioP1;P1;durP2;ratioP2;P2;SDS_P1;SDS_P2;PMS_P1;PMS_P2;Temp;Humidity;BMP_temperature;BMP_pressure;BME280_temperature;BME280_humidity;BME280_pressure;Samples;Min_cycle;Max_cycle;Signal;HPM_P1;HPM_P2
2023/10/28 00:00:47;;;;;;;13.80;2.67;;;;;;;21.36;60.27;95558.63;5096179;28;20548;-31
2023/10/28 00:03:13;;;;;;;14.00;2.67;;;;;;;21.34;60.31;95561.91;5101749;28;20055;-31
2023/10/28 00:05:38;;;;;;;8.48;1.85;;;;;;;21.53;59.81;95561.94;5094747;28;20062;-32
2023/10/28 00:08:04;;;;;;;11.05;2.65;;;;;;;21.40;59.67;95567.34;5095693;28;20451;-31
2023/10/28 00:10:31;;;;;;;10.48;1.90;;;;;;;21.25;60.53;95564.28;5094843;28;20016;-31
2023/10/28 00:12:57;;;;;;;13.00;2.17;;;;;;;21.45;60.00;95563.78;5094923;28;20024;-31
2023/10/28 00:15:24;;;;;;;11.00;2.30;;;;;;;21.50;60.19;95563.00;5095162;28;20085;-30
2023/10/28 00:17:50;;;;;;;13.75;2.38;;;;;;;21.37;60.29;95569.16;5094702;28;20395;-31
2023/10/28 00:20:19;;;;;;;13.43;1.90;;;;;;;21.39;60.54;95566.59;5094667;28;20058;-30
2023/10/28 00:22:49;;;;;;;14.52;2.28;;;;;;;21.41;60.16;95566.09;5094574;28;20027;-31
2023/10/28 00:25:16;;;;;;;17.10;2.30;;;;;;;21.27;60.75;95564.47;5095197;28;20023;-31
2023/10/28 00:27:43;;;;;;;13.82;2.58;;;;;;;21.24;61.14;95560.78;5094727;28;20535;-31
2023/10/28 00:30:09;;;;;;;12.68;1.80;;;;;;;21.32;61.01;95560.94;5094709;28;20024;-32
2023/10/28 00:32:38;;;;;;;8.60;2.13;;;;;;;21.32;60.64;95569.19;5094145;28;20016;-31
2023/10/28 00:35:07;;;;;;;15.80;2.80;;;;;;;21.41;60.55;95563.31;5094375;28;20099;-30
2023/10/28 00:37:34;;;;;;;16.08;2.35;;;;;;;21.49;60.17;95569.78;5094273;28;20078;-31
2023/10/28 00:39:59;;;;;;;12.75;1.83;;;;;;;21.41;60.74;95569.59;5094358;28;20357;-30
2023/10/28 00:42:25;;;;;;;12.75;2.47;;;;;;;21.27;60.85;95570.75;5094635;28;20012;-31
2023/10/28 00:44:50;;;;;;;10.07;2.30;;;;;;;21.28;61.04;95577.75;5094538;28;20425;-31
2023/10/28 00:47:17;;;;;;;13.30;2.38;;;;;;;21.26;60.96;95579.56;5094318;28;20016;-31
2023/10/28 00:49:43;;;;;;;12.70;2.17;;;;;;;21.27;61.25;95583.78;5094419;28;20024;-30
2023/10/28 00:52:09;;;;;;;13.93;2.35;;;;;;;21.22;61.21;95573.56;5094245;28;20020;-31
2023/10/28 00:54:35;;;;;;;11.25;2.00;;;;;;;21.32;60.95;95574.72;5094495;28;20048;-32
2023/10/28 00:57:01;;;;;;;12.93;2.17;;;;;;;21.32;61.13;95572.72;5094393;28;20012;-31
2023/10/28 00:59:28;;;;;;;14.90;2.00;;;;;;;21.25;61.59;95567.03;5094215;28;20035;-31
2023/10/28 01:01:54;;;;;;;13.40;2.22;;;;;;;21.23;61.24;95566.78;5093769;28;20489;-31
2023/10/28 01:04:20;;;;;;;16.30;2.67;;;;;;;21.24;61.37;95576.56;5094013;28;20032;-30
2023/10/28 01:06:46;;;;;;;17.50;1.98;;;;;;;21.08;61.95;95576.19;5094560;28;20028;-31
2023/10/28 01:09:12;;;;;;;17.45;2.85;;;;;;;21.21;61.60;95577.59;5092405;28;20016;-31
2023/10/28 01:11:39;;;;;;;11.70;2.35;;;;;;;21.15;61.68;95569.34;5094231;28;20104;-31
2023/10/28 01:14:07;;;;;;;13.57;1.90;;;;;;;21.19;61.44;95558.06;5094038;28;20024;-31
2023/10/28 01:16:33;;;;;;;14.27;2.22;;;;;;;21.13;61.59;95556.09;5093871;28;20333;-31
2023/10/28 01:19:00;;;;;;;11.45;1.83;;;;;;;21.11;62.23;95555.84;5093845;28;20047;-31
2023/10/28 01:21:26;;;;;;;9.30;1.85;;;;;;;21.18;61.45;95557.28;5094001;28;20439;-30
2023/10/28 01:23:52;;;;;;;15.38;2.03;;;;;;;21.01;62.26;95559.47;5094014;28;20043;-31
2023/10/28 01:26:18;;;;;;;10.85;2.00;;;;;;;21.05;61.98;95565.44;5093720;28;20046;-31
2023/10/28 01:28:43;;;;;;;13.32;2.00;;;;;;;21.12;61.89;95562.88;5093894;28;20028;-30
2023/10/28 01:31:09;;;;;;;14.85;2.35;;;;;;;21.24;61.83;95565.53;5093600;28;20020;-30
2023/10/28 01:33:34;;;;;;;12.73;2.30;;;;;;;21.06;62.31;95562.16;5092601;28;20031;-31
2023/10/28 01:36:00;;;;;;;11.18;2.85;;;;;;;21.08;62.36;95561.66;5093624;28;20061;-31
2023/10/28 01:38:26;;;;;;;16.20;2.30;;;;;;;21.02;62.44;95556.19;5092078;28;20020;-31
2023/10/28 01:40:52;;;;;;;22.10;3.08;;;;;;;21.10;62.30;95557.13;5100740;28;20528;-31
2023/10/28 01:43:20;;;;;;;13.88;2.50;;;;;;;21.14;62.13;95565.84;5101406;28;20024;-31
2023/10/28 01:45:46;;;;;;;16.45;2.55;;;;;;;21.22;62.54;95563.28;5100750;28;20024;-31
2023/10/28 01:48:12;;;;;;;20.65;3.70;;;;;;;21.16;62.52;95560.56;5093616;28;20031;-31
2023/10/28 01:50:38;;;;;;;15.98;2.97;;;;;;;21.19;62.77;95566.31;5093356;28;20471;-31
2023/10/28 01:53:03;;;;;;;16.48;2.67;;;;;;;21.16;62.75;95560.56;5097453;28;20051;-30
2023/10/28 01:55:29;;;;;;;21.77;2.92;;;;;;;21.31;62.60;95562.19;5096368;28;20094;-31
2023/10/28 01:57:55;;;;;;;17.98;3.00;;;;;;;21.15;63.29;95561.06;5100864;28;20024;-31
2023/10/28 02:00:22;;;;;;;20.85;3.38;;;;;;;21.25;63.01;95561.50;5092039;28;20039;-30
2023/10/28 02:02:48;;;;;;;18.83;3.17;;;;;;;21.24;63.25;95565.53;5093286;28;20471;-30
2023/10/28 02:05:15;;;;;;;17.85;3.97;;;;;;;21.21;63.38;95574.84;5093109;28;20035;-31
2023/10/28 02:07:40;;;;;;;12.43;3.15;;;;;;;21.09;63.79;95574.19;5100404;28;20020;-31
2023/10/28 02:10:06;;;;;;;17.63;3.50;;;;;;;21.19;63.27;95577.34;5093944;28;20361;-30
2023/10/28 02:12:34;;;;;;;14.70;3.90;;;;;;;21.09;63.71;95571.41;5093160;28;20020;-30
2023/10/28 02:15:09;;;;;;;14.90;3.53;;;;;;;21.00;64.01;95569.75;5093065;28;20019;-31
2023/10/28 02:17:35;;;;;;;15.55;3.15;;;;;;;21.01;64.45;95565.00;5093177;28;20024;-30
2023/10/28 02:20:06;;;;;;;12.57;2.60;;;;;;;21.03;64.58;95565.19;5093002;28;20047;-31
2023/10/28 02:22:32;;;;;;;11.95;3.30;;;;;;;21.08;64.25;95562.41;5094015;28;20031;-30
2023/10/28 02:24:58;;;;;;;16.92;2.88;;;;;;;21.12;64.14;95568.38;5093013;28;20032;-31
2023/10/28 02:27:23;;;;;;;11.20;2.88;;;;;;;21.01;64.78;95567.75;5100548;28;20125;-32
2023/10/28 02:29:49;;;;;;;8.50;2.17;;;;;;;21.00;64.79;95571.75;5093192;28;20028;-31
2023/10/28 02:32:14;;;;;;;8.48;2.28;;;;;;;20.99;64.75;95571.03;5093046;28;20031;-30
2023/10/28 02:34:41;;;;;;;9.57;2.30;;;;;;;21.03;64.47;95560.44;5093063;28;20035;-31
2023/10/28 02:37:07;;;;;;;5.40;1.88;;;;;;;21.10;64.27;95559.13;5093246;28;20052;-31
2023/10/28 02:39:33;;;;;;;6.75;2.30;;;;;;;21.10;63.97;95557.13;5093382;28;20035;-31
2023/10/28 02:41:58;;;;;;;9.07;2.15;;;;;;;21.00;64.17;95557.97;5092912;28;20012;-31
2023/10/28 02:44:24;;;;;;;8.27;2.03;;;;;;;21.07;64.02;95554.63;5094904;28;20015;-32
2023/10/28 02:46:49;;;;;;;6.57;2.30;;;;;;;21.01;64.31;95565.75;5096459;28;20099;-30
2023/10/28 02:49:15;;;;;;;9.38;2.63;;;;;;;20.99;64.16;95554.47;5096683;28;20399;-31
2023/10/28 02:51:41;;;;;;;6.60;2.28;;;;;;;21.19;63.64;95567.06;5097023;28;20099;-30
2023/10/28 02:54:06;;;;;;;7.88;1.95;;;;;;;20.87;63.91;95572.38;5096251;28;20403;-30
2023/10/28 02:56:31;;;;;;;6.03;2.22;;;;;;;20.95;63.44;95572.56;5096463;28;20022;-31
2023/10/28 02:58:57;;;;;;;5.10;2.10;;;;;;;20.98;63.51;95575.03;5096486;28;20137;-30
2023/10/28 03:01:23;;;;;;;4.55;1.63;;;;;;;20.97;63.43;95570.03;5096252;28;20052;-31
2023/10/28 03:03:48;;;;;;;5.00;1.52;;;;;;;21.18;62.43;95573.81;5096396;28;20437;-30
2023/10/28 03:06:14;;;;;;;6.10;1.70;;;;;;;21.02;62.84;95572.72;5097019;28;20016;-32
2023/10/28 03:08:40;;;;;;;4.85;1.60;;;;;;;21.15;62.26;95572.84;5103082;28;20027;-31
2023/10/28 03:11:06;;;;;;;8.60;2.42;;;;;;;20.93;62.69;95581.34;5096305;28;20019;-30
2023/10/28 03:13:31;;;;;;;7.45;1.50;;;;;;;21.00;62.50;95580.78;5096029;28;20016;-31
2023/10/28 03:15:56;;;;;;;5.38;1.77;;;;;;;21.08;62.14;95576.19;5096048;28;20020;-30
2023/10/28 03:18:22;;;;;;;8.98;1.60;;;;;;;20.99;62.24;95581.28;5099126;28;20273;-31
2023/10/28 03:20:48;;;;;;;7.53;2.10;;;;;;;21.15;61.46;95572.84;5099874;28;20032;-32
2023/10/28 03:23:14;;;;;;;8.10;1.70;;;;;;;21.08;61.61;95570.66;5096185;28;20035;-31
2023/10/28 03:25:40;;;;;;;8.68;1.85;;;;;;;21.15;61.35;95564.56;5095653;28;20085;-31
2023/10/28 03:28:05;;;;;;;10.95;1.73;;;;;;;20.88;61.67;95562.84;5095807;28;20051;-30
2023/10/28 03:30:31;;;;;;;9.45;1.52;;;;;;;21.14;61.04;95557.56;5096201;28;20063;-30
2023/10/28 03:32:57;;;;;;;7.13;1.50;;;;;;;21.13;60.99;95574.66;5095667;28;20055;-31
2023/10/28 03:35:23;;;;;;;8.88;1.70;;;;;;;21.04;61.37;95578.47;5095900;28;20447;-31
2023/10/28 03:37:48;;;;;;;9.27;1.40;;;;;;;21.12;60.99;95582.16;5095523;28;20054;-30
2023/10/28 03:40:14;;;;;;;8.30;1.58;;;;;;;20.87;61.84;95583.41;5095443;28;20024;-30
2023/10/28 03:42:39;;;;;;;6.32;1.80;;;;;;;21.17;60.84;95583.34;5095215;28;20020;-30
2023/10/28 03:45:08;;;;;;;9.15;1.77;;;;;;;20.96;61.09;95580.31;5095537;28;20065;-31
2023/10/28 03:47:34;;;;;;;10.75;2.10;;;;;;;21.04;60.73;95595.00;5095785;28;20450;-31
2023/10/28 03:50:00;;;;;;;13.95;2.35;;;;;;;20.96;61.24;95591.34;5102078;28;20087;-31
2023/10/28 03:52:26;;;;;;;6.25;1.60;;;;;;;20.88;61.21;95595.94;5095270;28;20089;-30
2023/10/28 03:54:51;;;;;;;7.68;1.92;;;;;;;21.01;60.99;95592.56;5094694;28;20051;-30
2023/10/28 03:57:17;;;;;;;7.57;1.02;;;;;;;20.85;61.46;95593.44;5094765;28;20040;-30
2023/10/28 03:59:45;;;;;;;10.10;1.77;;;;;;;20.86;61.24;95598.44;5095040;28;20111;-31
2023/10/28 04:02:11;;;;;;;8.23;1.50;;;;;;;21.03;60.68;95599.03;5095652;28;20051;-30
2023/10/28 04:04:36;;;;;;;7.78;1.90;;;;;;;20.91;61.02;95602.41;5095088;28;20059;-31
2023/10/28 04:07:01;;;;;;;9.50;1.10;;;;;;;20.96;60.55;95605.13;5095545;28;20016;-32
2023/10/28 04:09:27;;;;;;;9.48;1.88;;;;;;;20.95;60.67;95602.88;5094646;28;20016;-31
2023/10/28 04:11:52;;;;;;;9.82;2.05;;;;;;;21.03;60.40;95603.78;5094984;28;20081;-30
2023/10/28 04:14:18;;;;;;;9.88;1.48;;;;;;;20.97;60.33;95603.09;5095202;28;20019;-31
2023/10/28 04:16:43;;;;;;;9.55;1.77;;;;;;;20.94;60.55;95602.13;5093630;28;20019;-30
2023/10/28 04:19:09;;;;;;;8.90;1.65;;;;;;;20.93;60.53;95608.91;5095286;28;20024;-31
2023/10/28 04:21:35;;;;;;;10.02;1.88;;;;;;;20.84;60.71;95605.72;5094931;28;20063;-30
2023/10/28 04:24:01;;;;;;;7.55;1.75;;;;;;;20.98;60.52;95618.38;5094884;28;20141;-30
2023/10/28 04:26:26;;;;;;;9.40;1.50;;;;;;;20.93;60.75;95617.16;5094458;28;20977;-31
2023/10/28 04:28:52;;;;;;;11.45;2.15;;;;;;;20.77;61.15;95618.78;5094925;28;20023;-31
2023/10/28 04:31:17;;;;;;;6.78;1.50;;;;;;;21.03;60.41;95612.81;5094632;28;20476;-31
2023/10/28 04:33:43;;;;;;;10.43;1.10;;;;;;;20.91;60.84;95619.69;5094509;28;20032;-31
2023/10/28 04:36:09;;;;;;;6.28;1.95;;;;;;;20.95;60.39;95616.66;5094193;28;20093;-30
2023/10/28 04:38:39;;;;;;;8.77;1.27;;;;;;;20.98;60.34;95616.38;5094392;28;20467;-30
2023/10/28 04:41:04;;;;;;;7.57;1.25;;;;;;;21.13;59.71;95627.78;5093012;28;20020;-31
2023/10/28 04:43:30;;;;;;;10.77;1.77;;;;;;;20.90;60.79;95626.44;5094697;28;20039;-31
2023/10/28 04:45:55;;;;;;;11.48;1.70;;;;;;;21.05;60.21;95637.09;5094041;28;20031;-31
2023/10/28 04:48:21;;;;;;;15.10;1.80;;;;;;;21.00;59.98;95629.66;5094485;28;20019;-31
2023/10/28 04:50:48;;;;;;;9.30;1.63;;;;;;;20.86;60.84;95634.28;5094075;28;20038;-31
2023/10/28 04:53:14;;;;;;;7.75;1.35;;;;;;;20.95;60.32;95638.72;5093998;28;20051;-31
2023/10/28 04:55:41;;;;;;;7.72;1.77;;;;;;;20.93;60.15;95636.47;5094356;28;20017;-30
2023/10/28 04:58:06;;;;;;;11.00;1.60;;;;;;;20.85;60.43;95635.53;5094407;28;20023;-31
2023/10/28 05:00:32;;;;;;;8.35;2.13;;;;;;;21.13;59.39;95632.53;5094233;28;20031;-30
2023/10/28 05:02:57;;;;;;;9.68;1.60;;;;;;;20.90;60.17;95629.22;5093872;28;20099;-31
2023/10/28 05:05:24;;;;;;;5.90;1.40;;;;;;;20.94;60.24;95637.22;5093673;28;20039;-30
2023/10/28 05:07:49;;;;;;;10.18;1.50;;;;;;;20.90;60.49;95640.22;5094394;28;20531;-30
2023/10/28 05:10:15;;;;;;;5.57;1.50;;;;;;;20.88;60.49;95640.03;5094495;28;20039;-31
2023/10/28 05:12:41;;;;;;;8.02;1.30;;;;;;;20.98;60.18;95643.19;5093701;28;20024;-30
2023/10/28 05:15:08;;;;;;;7.85;1.63;;;;;;;20.94;60.28;95648.97;5094181;28;20479;-31
2023/10/28 05:17:35;;;;;;;9.25;2.08;;;;;;;21.02;60.06;95646.41;5093652;28;20103;-31
2023/10/28 05:20:06;;;;;;;9.10;1.20;;;;;;;20.86;60.55;95653.56;5094091;28;20038;-30
2023/10/28 05:22:35;;;;;;;10.13;1.58;;;;;;;20.91;60.41;95650.00;5093393;28;20025;-30
2023/10/28 05:25:00;;;;;;;13.32;2.00;;;;;;;20.84;60.57;95660.84;5093818;28;20028;-31
2023/10/28 05:27:26;;;;;;;5.93;1.15;;;;;;;20.90;60.07;95662.28;5093793;28;20031;-30
2023/10/28 05:29:51;;;;;;;10.23;1.65;;;;;;;20.94;59.99;95659.25;5099699;28;20452;-31
2023/10/28 05:32:16;;;;;;;8.70;2.05;;;;;;;20.72;60.48;95660.94;5095130;28;20019;-30
2023/10/28 05:34:42;;;;;;;11.48;1.92;;;;;;;20.99;60.09;95661.22;5093544;28;20042;-31
2023/10/28 05:37:07;;;;;;;10.00;1.98;;;;;;;21.00;59.57;95663.47;5093642;28;20087;-31
2023/10/28 05:39:33;;;;;;;9.05;1.98;;;;;;;20.86;60.34;95667.34;5093769;28;20028;-30
2023/10/28 05:41:58;;;;;;;9.05;1.65;;;;;;;20.89;60.12;95674.59;5093400;28;20024;-30
2023/10/28 05:44:24;;;;;;;5.18;1.30;;;;;;;20.89;59.94;95690.38;5101435;28;20016;-30
2023/10/28 05:46:50;;;;;;;10.32;2.35;;;;;;;20.86;60.24;95686.63;5093291;28;20012;-30
2023/10/28 05:49:15;;;;;;;10.23;1.80;;;;;;;20.77;60.57;95686.97;5094087;28;20371;-31
2023/10/28 05:51:43;;;;;;;10.52;2.53;;;;;;;20.77;60.57;95693.19;5093387;28;20471;-30
2023/10/28 05:54:11;;;;;;;10.10;1.95;;;;;;;20.89;60.29;95691.13;5093190;28;20048;-30
2023/10/28 05:56:36;;;;;;;10.27;1.52;;;;;;;20.82;60.46;95691.66;5094051;28;20016;-30
2023/10/28 05:59:02;;;;;;;14.73;1.77;;;;;;;20.71;60.79;95694.50;5093631;28;20512;-31
2023/10/28 06:01:27;;;;;;;6.80;1.40;;;;;;;20.75;60.62;95703.25;5093464;28;20016;-30
2023/10/28 06:03:53;;;;;;;14.45;1.85;;;;;;;20.90;59.91;95720.16;5092005;28;20032;-30
2023/10/28 06:06:19;;;;;;;11.02;1.50;;;;;;;20.75;60.85;95711.53;5092821;28;20109;-30
2023/10/28 06:08:44;;;;;;;9.13;1.40;;;;;;;20.82;60.65;95712.97;5093145;28;20027;-31
2023/10/28 06:11:10;;;;;;;11.00;2.22;;;;;;;20.69;61.17;95728.06;5101166;28;20535;-31
2023/10/28 06:13:36;;;;;;;10.98;2.05;;;;;;;20.55;61.50;95728.41;5093408;28;20532;-30
2023/10/28 06:16:02;;;;;;;14.05;1.40;;;;;;;20.69;60.86;95733.59;5093115;28;20028;-30
2023/10/28 06:18:27;;;;;;;11.25;1.30;;;;;;;20.88;60.37;95728.22;5093601;28;20023;-31
2023/10/28 06:20:53;;;;;;;6.95;1.38;;;;;;;20.79;60.74;95731.25;5097239;28;20356;-30
2023/10/28 06:23:18;;;;;;;8.05;1.40;;;;;;;20.87;60.24;95735.00;5097260;28;20085;-31
2023/10/28 06:25:44;;;;;;;5.45;1.23;;;;;;;20.91;60.45;95748.47;5097244;28;20555;-30
2023/10/28 06:28:10;;;;;;;9.30;2.10;;;;;;;20.94;60.48;95753.72;5097241;28;20020;-30
2023/10/28 06:30:37;;;;;;;8.82;1.38;;;;;;;20.77;60.81;95756.56;5104128;28;20020;-30
2023/10/28 06:33:02;;;;;;;6.95;1.85;;;;;;;20.80;60.90;95754.81;5096972;28;20081;-30
2023/10/28 06:35:30;;;;;;;8.75;1.42;;;;;;;20.71;61.35;95757.88;5095746;28;20019;-30
2023/10/28 06:37:55;;;;;;;9.55;1.45;;;;;;;20.80;61.50;95765.84;5096922;28;20100;-30
2023/10/28 06:40:21;;;;;;;7.03;1.45;;;;;;;20.81;61.36;95767.31;5096955;28;20106;-30
2023/10/28 06:42:46;;;;;;;8.00;1.75;;;;;;;20.75;61.79;95769.38;5097040;28;20016;-30
2023/10/28 06:45:12;;;;;;;8.77;1.45;;;;;;;20.89;61.46;95775.81;5096526;28;20020;-30
2023/10/28 06:47:37;;;;;;;12.93;1.50;;;;;;;20.90;61.63;95791.81;5095972;28;20020;-30
2023/10/28 06:50:06;;;;;;;6.25;1.45;;;;;;;20.94;61.73;95797.81;5096485;28;20024;-31
2023/10/28 06:52:32;;;;;;;7.20;1.17;;;;;;;20.89;61.74;95795.13;5096581;28;20012;-31
2023/10/28 06:55:02;;;;;;;7.78;1.55;;;;;;;20.82;61.86;95795.63;5096908;28;20157;-31
2023/10/28 06:57:30;;;;;;;8.23;1.65;;;;;;;20.86;61.80;95805.16;5096203;28;20023;-30
2023/10/28 06:59:56;;;;;;;7.60;1.73;;;;;;;20.83;62.25;95800.66;5096735;28;20034;-30
2023/10/28 07:02:23;;;;;;;6.47;1.50;;;;;;;20.73;62.75;95805.72;5096141;28;20507;-30
2023/10/28 07:04:49;;;;;;;9.63;2.22;;;;;;;20.70;63.07;95806.72;5096590;28;20473;-31
2023/10/28 07:07:14;;;;;;;13.00;2.10;;;;;;;20.72;63.11;95814.47;5096103;28;20023;-31
2023/10/28 07:09:40;;;;;;;8.23;1.30;;;;;;;20.77;62.78;95808.94;5103435;28;20024;-31
2023/10/28 07:12:06;;;;;;;10.68;1.75;;;;;;;20.89;62.93;95801.38;5096456;28;20467;-31
2023/10/28 07:14:34;;;;;;;8.43;1.83;;;;;;;20.66;63.94;95806.22;5096068;28;20031;-30
2023/10/28 07:16:59;;;;;;;8.57;1.58;;;;;;;20.68;63.72;95816.75;5096250;28;20024;-31
2023/10/28 07:19:25;;;;;;;8.07;1.83;;;;;;;20.73;63.77;95815.97;5095792;28;20073;-32
2023/10/28 07:21:50;;;;;;;12.50;1.67;;;;;;;20.87;63.13;95825.19;5102550;28;20019;-30
2023/10/28 07:24:16;;;;;;;9.73;2.15;;;;;;;20.85;63.07;95820.19;5096575;28;20455;-31
2023/10/28 07:26:42;;;;;;;12.40;1.73;;;;;;;20.73;64.14;95821.50;5095686;28;20031;-31
2023/10/28 07:29:08;;;;;;;10.32;1.30;;;;;;;20.72;63.92;95825.50;5095778;28;20471;-30
2023/10/28 07:31:38;;;;;;;10.50;1.52;;;;;;;20.89;63.62;95828.19;5094360;28;20034;-30
2023/10/28 07:34:04;;;;;;;9.80;1.67;;;;;;;20.82;63.91;95826.69;5095563;28;20062;-30
2023/10/28 07:36:32;;;;;;;8.15;1.27;;;;;;;20.84;63.67;95832.47;5103059;28;20015;-31
2023/10/28 07:38:57;;;;;;;9.65;1.48;;;;;;;20.89;64.10;95833.69;5095558;28;20391;-30
2023/10/28 07:41:23;;;;;;;11.98;2.15;;;;;;;20.75;64.30;95839.03;5095777;28;20031;-31
2023/10/28 07:43:48;;;;;;;8.90;1.30;;;;;;;20.84;64.42;95842.72;5095497;28;20028;-31
2023/10/28 07:46:14;;;;;;;6.95;1.40;;;;;;;20.93;64.29;95847.94;5095424;28;20023;-30
2023/10/28 07:48:40;;;;;;;10.48;1.35;;;;;;;21.06;63.58;95854.41;5102671;28;20099;-31
2023/10/28 07:51:05;;;;;;;12.35;1.67;;;;;;;21.06;63.54;95848.88;5095556;28;20518;-30
2023/10/28 07:53:31;;;;;;;11.32;1.48;;;;;;;21.03;63.91;95855.41;5095362;28;20048;-31
2023/10/28 07:55:56;;;;;;;6.32;1.00;;;;;;;20.99;64.01;95863.22;5095043;28;20153;-30
2023/10/28 07:58:22;;;;;;;9.20;1.42;;;;;;;21.05;63.95;95874.19;5095319;28;20052;-31
2023/10/28 08:00:47;;;;;;;12.52;1.90;;;;;;;20.93;64.51;95876.25;5095363;28;20020;-31
2023/10/28 08:03:13;;;;;;;10.80;1.42;;;;;;;20.98;64.10;95881.00;5095129;28;20425;-30
2023/10/28 08:05:39;;;;;;;6.70;1.60;;;;;;;21.19;63.58;95888.94;5095450;28;20058;-31
2023/10/28 08:08:04;;;;;;;7.18;1.60;;;;;;;21.04;64.29;95890.00;5094929;28;20035;-31
2023/10/28 08:10:29;;;;;;;10.60;2.13;;;;;;;21.21;63.49;95891.94;5095186;28;20067;-31
2023/10/28 08:12:58;;;;;;;9.40;1.42;;;;;;;21.16;63.98;95888.69;5095066;28;20031;-31
2023/10/28 08:15:24;;;;;;;10.57;1.63;;;;;;;21.10;64.25;95893.47;5094959;28;20110;-31
2023/10/28 08:17:51;;;;;;;7.97;1.60;;;;;;;21.16;64.08;95901.72;5095201;28;20526;-31
2023/10/28 08:20:17;;;;;;;11.65;1.40;;;;;;;21.03;64.32;95905.03;5094748;28;20023;-31
2023/10/28 08:22:44;;;;;;;7.00;1.10;;;;;;;20.96;64.89;95899.31;5094810;28;20421;-31
2023/10/28 08:25:15;;;;;;;7.13;1.30;;;;;;;21.07;64.80;95911.03;5094794;28;20051;-30
2023/10/28 08:27:41;;;;;;;8.68;1.58;;;;;;;21.08;64.84;95918.06;5094756;28;20020;-31
2023/10/28 08:30:07;;;;;;;8.75;1.75;;;;;;;21.27;63.89;95917.47;5094823;28;20522;-31
2023/10/28 08:32:33;;;;;;;6.97;1.27;;;;;;;21.29;64.25;95914.97;5094865;28;20415;-30
2023/10/28 08:34:58;;;;;;;5.55;0.90;;;;;;;21.35;63.44;95918.44;5094763;28;20016;-31
2023/10/28 08:37:24;;;;;;;6.68;1.17;;;;;;;21.44;63.30;95927.16;5094414;28;20111;-30
2023/10/28 08:39:49;;;;;;;7.88;1.33;;;;;;;21.44;62.96;95918.16;5094641;28;20099;-30
2023/10/28 08:42:17;;;;;;;10.90;1.27;;;;;;;21.31;63.28;95917.97;5094029;28;20016;-30
2023/10/28 08:44:43;;;;;;;5.53;1.25;;;;;;;21.36;63.20;95920.69;5095009;28;20020;-30
2023/10/28 08:47:08;;;;;;;5.95;1.35;;;;;;;21.68;62.00;95923.75;5094726;28;20023;-31
2023/10/28 08:49:42;;;;;;;5.00;0.80;;;;;;;21.61;62.42;95924.31;5094694;28;20028;-30
2023/10/28 08:52:13;;;;;;;11.75;1.20;;;;;;;21.60;62.27;95939.38;5094260;28;20471;-31
2023/10/28 08:54:39;;;;;;;4.45;1.08;;;;;;;21.66;61.95;95926.28;5093984;28;20089;-30
2023/10/28 08:57:07;;;;;;;6.65;1.13;;;;;;;21.74;61.94;95938.28;5094143;28;20024;-31
2023/10/28 08:59:32;;;;;;;6.15;0.98;;;;;;;21.73;60.67;95936.78;5093868;28;20080;-31
2023/10/28 09:01:58;;;;;;;4.72;1.20;;;;;;;21.85;60.69;95940.97;5094317;28;20027;-31
2023/10/28 09:04:24;;;;;;;7.38;1.15;;;;;;;21.67;61.52;95949.84;5093924;28;20043;-31
2023/10/28 09:06:52;;;;;;;5.95;1.10;;;;;;;21.74;60.55;95940.28;5093984;28;20051;-31
2023/10/28 09:09:18;;;;;;;4.70;0.85;;;;;;;21.80;60.90;95944.50;5094063;28;20056;-30
2023/10/28 09:11:45;;;;;;;4.40;0.95;;;;;;;21.78;60.76;95944.25;5093664;28;20039;-31
2023/10/28 09:14:11;;;;;;;5.70;1.00;;;;;;;21.95;60.58;95952.44;5101190;28;20068;-31
2023/10/28 09:16:37;;;;;;;7.32;0.98;;;;;;;21.93;60.45;95956.97;5092706;28;20016;-31
2023/10/28 09:19:04;;;;;;;8.05;1.33;;;;;;;21.88;60.36;95953.72;5093557;28;20099;-31
2023/10/28 09:21:30;;;;;;;5.65;0.90;;;;;;;21.76;60.45;95963.34;5093817;28;20052;-31
2023/10/28 09:24:02;;;;;;;7.68;1.35;;;;;;;21.81;60.56;95948.00;5093953;28;20105;-31
2023/10/28 09:26:28;;;;;;;5.75;0.93;;;;;;;21.77;60.02;95958.56;5110382;28;20020;-31
2023/10/28 09:28:54;;;;;;;5.70;0.82;;;;;;;21.68;60.56;95956.88;5097921;28;20028;-32
2023/10/28 09:31:25;;;;;;;4.80;0.95;;;;;;;21.68;60.54;95959.63;5101074;28;20046;-31
2023/10/28 09:33:52;;;;;;;3.45;0.70;;;;;;;21.85;60.03;95959.53;5093750;28;20031;-31
2023/10/28 09:36:18;;;;;;;5.22;0.82;;;;;;;21.90;60.14;95955.22;5093442;28;20020;-31
2023/10/28 09:38:45;;;;;;;4.68;1.02;;;;;;;21.84;59.91;95960.78;5093901;28;20031;-31
2023/10/28 09:41:11;;;;;;;8.27;1.17;;;;;;;21.84;59.79;95963.56;5093812;28;20022;-31
2023/10/28 09:43:37;;;;;;;6.47;1.08;;;;;;;21.80;60.09;95963.06;5093983;28;20073;-31
2023/10/28 09:46:05;;;;;;;5.07;0.93;;;;;;;21.82;59.63;95966.06;5093579;28;20061;-31
2023/10/28 09:48:32;;;;;;;6.35;1.35;;;;;;;21.81;59.62;95968.09;5093979;28;20019;-30
2023/10/28 09:50:58;;;;;;;3.80;0.88;;;;;;;21.81;59.79;95956.28;5093218;28;20028;-31
2023/10/28 09:53:33;;;;;;;5.95;1.20;;;;;;;21.83;59.70;95951.75;5100232;28;20395;-31
2023/10/28 09:56:04;;;;;;;4.00;0.80;;;;;;;21.80;59.99;95952.03;5097860;28;20020;-31
2023/10/28 09:58:37;;;;;;;6.03;1.42;;;;;;;21.82;59.72;95961.31;5097621;28;20023;-31
2023/10/28 10:01:21;;;;;;;5.03;1.38;;;;;;;21.88;59.75;95964.75;5104872;28;20024;-31
2023/10/28 10:04:02;;;;;;;6.30;0.85;;;;;;;22.00;59.01;95953.69;5097426;28;20426;-31
2023/10/28 10:06:27;;;;;;;4.95;1.00;;;;;;;21.95;59.50;95957.19;5103506;28;20379;-30
2023/10/28 10:08:55;;;;;;;4.20;0.70;;;;;;;21.97;59.94;95963.72;5099393;28;20123;-31
2023/10/28 10:11:25;;;;;;;5.65;1.05;;;;;;;21.92;59.85;95967.25;5095981;28;20349;-31
2023/10/28 10:13:51;;;;;;;6.13;1.30;;;;;;;21.98;59.82;95958.94;5097399;28;20486;-31
2023/10/28 10:16:44;;;;;;;3.97;0.90;;;;;;;21.81;59.85;95959.81;5097109;28;20031;-31
2023/10/28 10:19:12;;;;;;;5.10;1.00;;;;;;;21.88;59.94;95962.00;5097041;28;20175;-31
2023/10/28 10:21:38;;;;;;;6.07;1.20;;;;;;;21.97;59.87;95965.72;5097228;28;20024;-32
2023/10/28 10:24:04;;;;;;;7.68;1.17;;;;;;;22.15;58.71;95965.09;5097204;28;20490;-32
2023/10/28 10:26:32;;;;;;;6.28;0.90;;;;;;;21.91;59.21;95960.22;5097025;28;20027;-32
2023/10/28 10:28:58;;;;;;;6.00;0.90;;;;;;;22.11;58.77;95953.59;5096550;28;20031;-31
2023/10/28 10:31:29;;;;;;;6.20;1.30;;;;;;;22.08;57.81;95957.38;5097344;28;20031;-30
2023/10/28 10:34:12;;;;;;;6.35;1.23;;;;;;;22.00;57.27;95956.44;5097180;28;20028;-30
2023/10/28 10:36:43;;;;;;;5.65;0.85;;;;;;;22.05;56.87;95955.66;5104591;28;20372;-31
2023/10/28 10:39:10;;;;;;;4.40;0.80;;;;;;;22.18;56.63;95958.56;5103774;28;20354;-31
2023/10/28 10:41:36;;;;;;;5.55;1.13;;;;;;;22.03;56.24;95958.16;5096744;28;20110;-30
2023/10/28 10:44:40;;;;;;;5.97;1.00;;;;;;;22.15;56.09;95959.56;5097061;28;20015;-31
2023/10/28 10:47:08;;;;;;;3.33;0.70;;;;;;;21.91;56.80;95959.47;5016729;28;20051;-30
2023/10/28 10:49:35;;;;;;;9.00;0.85;;;;;;;22.00;55.48;95951.69;5032806;28;20044;-31
2023/10/28 10:52:03;;;;;;;3.78;0.70;;;;;;;22.04;55.98;95965.19;5033234;28;20117;-30
2023/10/28 10:54:39;;;;;;;2.38;0.60;;;;;;;21.98;56.00;95958.94;5032911;28;20053;-31
2023/10/28 10:57:06;;;;;;;3.33;0.73;;;;;;;21.95;55.96;95962.72;5033141;28;20028;-31
2023/10/28 10:59:38;;;;;;;6.43;1.00;;;;;;;21.97;56.38;95960.22;5033144;28;20044;-31
2023/10/28 11:02:04;;;;;;;3.17;0.73;;;;;;;22.00;56.43;95964.75;5033067;28;20025;-31
2023/10/28 11:04:31;;;;;;;3.30;0.73;;;;;;;22.12;56.37;95963.38;5032938;28;20029;-31
2023/10/28 11:06:57;;;;;;;7.03;1.08;;;;;;;21.99;56.44;95954.94;5032682;28;20033;-30
2023/10/28 11:09:23;;;;;;;5.78;1.70;;;;;;;21.88;56.75;95955.75;5032974;28;20021;-31
2023/10/28 11:11:49;;;;;;;6.40;2.10;;;;;;;22.10;56.47;95946.56;5032536;28;20043;-31
2023/10/28 11:14:15;;;;;;;6.22;1.60;;;;;;;22.22;56.24;95950.75;5032677;28;20029;-31
2023/10/28 11:16:41;;;;;;;4.95;1.30;;;;;;;21.94;56.42;95936.38;5034508;28;20029;-31
2023/10/28 11:19:09;;;;;;;6.43;1.30;;;;;;;22.20;56.06;95939.47;5103274;28;20015;-31
2023/10/28 11:21:36;;;;;;;3.97;1.27;;;;;;;22.06;56.43;95940.56;5100474;28;20118;-31
2023/10/28 11:24:03;;;;;;;7.90;1.30;;;;;;;22.05;56.16;95933.56;5098451;28;20024;-31
2023/10/28 11:26:28;;;;;;;5.55;1.30;;;;;;;22.16;54.61;95944.50;5095737;28;20087;-31